createdAt,value
2024-05-09T00:02:08.225Z,6.57
2024-05-09T00:04:39.830Z,8.00
2024-05-09T00:07:09.714Z,7.70
2024-05-09T00:09:41.909Z,9.13
2024-05-09T00:12:11.504Z,9.57
2024-05-09T00:15:27.470Z,7.20
2024-05-09T00:17:56.632Z,8.77
2024-05-09T00:20:35.118Z,7.00
2024-05-09T00:23:29.208Z,7.45
2024-05-09T00:25:56.549Z,10.27
2024-05-09T00:28:31.071Z,6.93
2024-05-09T00:30:58.438Z,6.53
2024-05-09T00:33:27.097Z,8.48
2024-05-09T00:36:00.434Z,6.35
2024-05-09T00:38:27.344Z,7.38
2024-05-09T00:41:00.234Z,9.20
2024-05-09T00:43:32.490Z,6.80
2024-05-09T00:46:02.086Z,7.55
2024-05-09T00:48:29.131Z,8.20
2024-05-09T00:50:57.652Z,9.43
2024-05-09T00:53:28.925Z,6.30
2024-05-09T00:55:58.222Z,6.82
2024-05-09T00:58:54.304Z,8.88
2024-05-09T01:01:36.483Z,8.10
2024-05-09T01:04:03.509Z,6.40
2024-05-09T01:06:31.390Z,7.63
2024-05-09T01:08:59.174Z,6.53
2024-05-09T01:11:33.967Z,7.40
2024-05-09T01:14:03.825Z,7.85
2024-05-09T01:16:31.084Z,6.47
2024-05-09T01:18:59.019Z,7.90
2024-05-09T01:21:28.781Z,7.03
2024-05-09T01:25:10.617Z,6.93
2024-05-09T01:27:58.270Z,6.65
2024-05-09T01:30:31.944Z,7.15
2024-05-09T01:33:02.384Z,6.10
2024-05-09T01:35:29.245Z,6.05
2024-05-09T01:37:56.202Z,5.32
2024-05-09T01:40:36.135Z,6.03
2024-05-09T01:45:34.215Z,4.57
2024-05-09T01:48:01.766Z,6.22
2024-05-09T01:50:37.666Z,7.10
2024-05-09T01:53:12.773Z,8.27
2024-05-09T01:55:44.629Z,5.88
2024-05-09T01:58:14.404Z,6.88
2024-05-09T02:00:42.882Z,7.80
2024-05-09T02:03:15.579Z,10.05
2024-05-09T02:05:48.011Z,7.10
2024-05-09T02:08:27.061Z,7.10
2024-05-09T02:10:57.414Z,6.32
2024-05-09T02:13:24.166Z,6.32
2024-05-09T02:16:02.288Z,5.85
2024-05-09T02:18:30.332Z,5.68
2024-05-09T02:20:57.438Z,6.97
2024-05-09T02:23:34.316Z,8.20
2024-05-09T02:26:01.404Z,7.07
2024-05-09T02:28:30.099Z,7.32
2024-05-09T02:31:01.360Z,7.68
2024-05-09T02:33:28.844Z,6.82
2024-05-09T02:35:56.157Z,6.25
2024-05-09T02:39:26.209Z,7.38
2024-05-09T02:42:03.443Z,9.13
2024-05-09T02:44:33.322Z,6.03
2024-05-09T02:47:03.606Z,7.20
2024-05-09T02:49:30.576Z,9.60
2024-05-09T02:51:57.429Z,6.55
2024-05-09T02:54:27.218Z,7.05
2024-05-09T02:56:55.574Z,7.35
2024-05-09T02:59:38.225Z,6.20
2024-05-09T03:02:08.243Z,8.43
2024-05-09T03:04:38.111Z,6.97
2024-05-09T03:07:07.569Z,5.90
2024-05-09T03:09:34.282Z,7.20
2024-05-09T03:12:01.441Z,6.25
2024-05-09T03:14:28.700Z,5.78
2024-05-09T03:16:58.065Z,6.88
2024-05-09T03:19:24.971Z,5.78
2024-05-09T03:21:59.550Z,8.30
2024-05-09T03:24:29.395Z,7.90
2024-05-09T03:26:59.690Z,6.32
2024-05-09T03:29:31.069Z,6.05
2024-05-09T03:32:00.774Z,7.35
2024-05-09T03:34:30.857Z,5.90
2024-05-09T03:36:57.841Z,6.75
2024-05-09T03:39:29.047Z,6.60
2024-05-09T03:41:56.298Z,5.95
2024-05-09T03:44:35.090Z,7.32
2024-05-09T03:47:01.960Z,6.80
2024-05-09T03:49:31.885Z,6.60
2024-05-09T03:51:58.806Z,7.47
2024-05-09T03:54:28.001Z,6.90
2024-05-09T03:56:59.516Z,5.78
2024-05-09T03:59:28.825Z,7.57
2024-05-09T04:01:59.142Z,8.90
2024-05-09T04:06:59.839Z,6.10
2024-05-09T04:09:26.613Z,6.50
2024-05-09T04:11:57.694Z,7.50
2024-05-09T04:14:30.212Z,6.72
2024-05-09T04:16:57.056Z,8.35
2024-05-09T04:19:24.036Z,7.68
2024-05-09T04:22:41.378Z,6.97
2024-05-09T04:25:11.306Z,6.95
2024-05-09T04:28:33.073Z,7.45
2024-05-09T04:30:37.600Z,6.35
2024-05-09T04:33:12.139Z,9.90
2024-05-09T04:36:07.093Z,6.65
2024-05-09T04:38:52.241Z,10.18
2024-05-09T04:41:27.305Z,7.68
2024-05-09T04:43:58.292Z,10.75
2024-05-09T04:46:28.521Z,7.30
2024-05-09T04:49:07.680Z,6.40
2024-05-09T04:51:36.572Z,7.95
2024-05-09T04:54:05.545Z,7.72
2024-05-09T04:56:35.362Z,8.15
2024-05-09T04:59:02.150Z,8.68
2024-05-09T05:01:28.846Z,8.02
2024-05-09T05:03:58.743Z,8.02
2024-05-09T05:06:30.213Z,10.10
2024-05-09T05:08:59.167Z,7.07
2024-05-09T05:11:25.958Z,7.03
2024-05-09T05:13:56.782Z,6.95
2024-05-09T05:16:23.565Z,7.65
2024-05-09T05:18:52.948Z,7.55
2024-05-09T05:21:21.273Z,7.57
2024-05-09T05:23:48.472Z,7.95
2024-05-09T05:26:20.310Z,7.90
2024-05-09T05:28:59.716Z,8.63
2024-05-09T05:31:26.491Z,9.57
2024-05-09T05:34:00.165Z,9.95
2024-05-09T05:36:31.371Z,7.63
2024-05-09T05:38:58.185Z,9.93
2024-05-09T05:41:25.676Z,10.57
2024-05-09T05:43:52.632Z,9.30
2024-05-09T05:46:28.628Z,9.57
2024-05-09T05:48:56.542Z,10.18
2024-05-09T05:51:30.254Z,9.40
2024-05-09T05:54:00.094Z,9.77
2024-05-09T05:56:27.646Z,10.70
2024-05-09T05:58:54.544Z,11.80
2024-05-09T06:01:21.272Z,12.38
2024-05-09T06:03:49.812Z,12.40
2024-05-09T06:06:20.754Z,14.23
2024-05-09T06:08:47.731Z,11.80
2024-05-09T06:11:14.821Z,12.80
2024-05-09T06:14:01.573Z,13.00
2024-05-09T06:16:31.563Z,14.80
2024-05-09T06:19:53.615Z,13.00
2024-05-09T06:23:15.972Z,11.75
2024-05-09T06:28:58.761Z,13.07
2024-05-09T06:31:29.436Z,11.27
2024-05-09T06:33:57.774Z,12.60
2024-05-09T06:36:24.733Z,12.00
2024-05-09T06:41:46.905Z,12.75
2024-05-09T06:45:16.215Z,11.73
2024-05-09T06:47:50.291Z,10.70
2024-05-09T06:50:28.715Z,13.63
2024-05-09T06:53:41.212Z,11.73
2024-05-09T06:56:08.865Z,10.70
2024-05-09T06:58:58.063Z,12.07
2024-05-09T07:02:17.410Z,10.50
2024-05-09T07:05:13.944Z,10.93
2024-05-09T07:07:57.531Z,11.65
2024-05-09T07:10:34.868Z,9.73
2024-05-09T07:13:28.603Z,9.88
2024-05-09T07:15:58.320Z,10.30
2024-05-09T07:18:29.565Z,10.05
2024-05-09T07:20:59.914Z,8.77
2024-05-09T07:26:27.712Z,10.60
2024-05-09T07:28:54.761Z,10.43
2024-05-09T07:31:23.966Z,9.38
2024-05-09T07:34:03.780Z,9.10
2024-05-09T07:36:35.074Z,10.18
2024-05-09T07:39:03.426Z,9.82
2024-05-09T07:41:55.479Z,9.35
2024-05-09T07:44:42.200Z,8.02
2024-05-09T07:53:36.814Z,8.15
2024-05-09T07:58:37.330Z,9.10
2024-05-09T08:04:01.226Z,8.20
2024-05-09T08:07:35.035Z,6.75
2024-05-09T08:11:18.398Z,8.20
2024-05-09T08:14:04.693Z,8.43
2024-05-09T08:16:51.066Z,6.90
2024-05-09T08:19:32.250Z,7.93
2024-05-09T08:22:32.428Z,6.03
2024-05-09T08:32:32.248Z,6.03
2024-05-09T08:38:32.246Z,8.45
2024-05-09T08:41:54.534Z,7.47
2024-05-09T08:45:46.705Z,8.38
2024-05-09T08:49:11.153Z,7.25
2024-05-09T08:54:58.098Z,6.55
2024-05-09T09:03:36.708Z,6.65
2024-05-09T09:06:23.490Z,6.22
2024-05-09T09:09:17.917Z,6.05
2024-05-09T09:16:05.440Z,8.88
2024-05-09T09:18:34.567Z,7.07
2024-05-09T09:21:06.650Z,7.60
2024-05-09T09:23:33.717Z,7.55
2024-05-09T09:26:06.462Z,7.80
2024-05-09T09:28:38.930Z,7.95
2024-05-09T09:31:31.904Z,6.85
2024-05-09T09:34:49.121Z,6.22
2024-05-09T09:57:17.258Z,6.88
2024-05-09T10:05:36.741Z,7.80
2024-05-09T10:08:28.414Z,6.80
2024-05-09T10:11:07.404Z,7.68
2024-05-09T10:16:58.875Z,5.88
2024-05-09T10:28:00.607Z,5.30
2024-05-09T10:30:36.282Z,8.25
2024-05-09T10:40:40.678Z,6.28
2024-05-09T10:44:01.892Z,6.60
2024-05-09T11:05:43.208Z,5.70
2024-05-09T11:11:30.791Z,5.65
2024-05-09T11:13:58.128Z,6.50
2024-05-09T11:16:32.210Z,6.68
2024-05-09T11:19:02.127Z,7.38
2024-05-09T11:21:35.980Z,7.40
2024-05-09T11:24:04.872Z,5.32
2024-05-09T11:26:40.565Z,6.65
2024-05-09T11:29:07.409Z,7.70
2024-05-09T11:31:57.065Z,6.40
2024-05-09T11:34:26.566Z,5.28
2024-05-09T11:37:04.347Z,7.45
2024-05-09T11:39:31.305Z,6.88
2024-05-09T11:42:04.699Z,7.10
2024-05-09T11:44:34.232Z,7.38
2024-05-09T11:47:01.411Z,8.50
2024-05-09T11:50:07.716Z,7.70
2024-05-09T11:52:35.264Z,8.38
2024-05-09T11:55:02.909Z,8.27
2024-05-09T11:57:33.277Z,7.45
2024-05-09T12:00:00.250Z,9.00
2024-05-09T12:05:59.396Z,8.55
2024-05-09T12:08:35.934Z,7.20
2024-05-09T12:11:08.286Z,7.57
2024-05-09T12:13:35.999Z,8.48
2024-05-09T12:16:05.172Z,9.18
2024-05-09T12:18:36.048Z,7.20
2024-05-09T12:21:08.468Z,6.80
2024-05-09T12:34:58.145Z,8.75
2024-05-09T12:39:00.287Z,8.80
2024-05-09T12:41:36.278Z,8.13
2024-05-09T12:44:21.549Z,9.32
2024-05-09T12:47:14.316Z,9.40
2024-05-09T12:56:25.570Z,8.52
2024-05-09T13:11:41.066Z,7.95
2024-05-09T13:14:08.428Z,7.68
2024-05-09T13:16:35.419Z,9.95
2024-05-09T13:19:02.671Z,8.88
2024-05-09T13:21:29.550Z,9.27
2024-05-09T13:24:03.678Z,8.98
2024-05-09T13:26:36.622Z,10.13
2024-05-09T13:29:05.143Z,10.52
2024-05-09T13:31:32.559Z,8.20
2024-05-09T13:34:03.157Z,8.95
2024-05-09T13:36:30.595Z,11.30
2024-05-09T13:38:59.459Z,11.55
2024-05-09T13:41:32.182Z,10.70
2024-05-09T13:44:01.656Z,10.07
2024-05-09T13:46:28.504Z,10.60
2024-05-09T13:50:05.180Z,9.02
2024-05-09T13:52:35.367Z,9.20
2024-05-09T13:55:07.612Z,9.43
2024-05-09T13:57:34.469Z,12.90
2024-05-09T14:00:01.460Z,10.88
2024-05-09T14:02:38.464Z,7.45
2024-05-09T14:05:06.737Z,9.45
2024-05-09T14:07:36.501Z,9.45
2024-05-09T14:12:35.675Z,9.98
2024-05-09T14:15:02.726Z,8.55
2024-05-09T14:18:31.985Z,8.90
2024-05-09T14:21:02.036Z,9.60
2024-05-09T14:23:30.021Z,9.10
2024-05-09T14:26:58.896Z,9.75
2024-05-09T14:29:30.025Z,8.13
2024-05-09T14:32:00.445Z,11.18
2024-05-09T14:34:36.530Z,9.43
2024-05-09T14:37:04.754Z,8.23
2024-05-09T14:39:37.330Z,13.85
2024-05-09T14:45:02.732Z,9.60
2024-05-09T14:47:29.675Z,8.75
2024-05-09T14:50:00.472Z,9.82
2024-05-09T14:52:33.005Z,9.60
2024-05-09T14:55:01.230Z,9.75
2024-05-09T14:57:31.595Z,9.07
2024-05-09T15:00:02.102Z,11.63
2024-05-09T15:02:33.806Z,9.40
2024-05-09T15:05:00.915Z,10.00
2024-05-09T15:07:27.915Z,10.93
2024-05-09T15:10:57.143Z,9.30
2024-05-09T15:13:24.734Z,8.82
2024-05-09T15:15:51.932Z,9.18
2024-05-09T15:18:21.147Z,9.70
2024-05-09T15:20:50.913Z,8.77
2024-05-09T15:23:17.878Z,10.10
2024-05-09T15:25:45.114Z,10.98
2024-05-09T15:28:20.816Z,9.50
2024-05-09T15:30:50.348Z,10.07
2024-05-09T15:34:22.356Z,8.98
2024-05-09T15:37:40.644Z,11.25
2024-05-09T15:40:15.360Z,13.15
2024-05-09T15:43:01.229Z,10.43
2024-05-09T15:45:31.966Z,11.73
2024-05-09T15:48:03.319Z,9.35
2024-05-09T15:50:38.755Z,11.10
2024-05-09T15:53:31.487Z,11.23
2024-05-09T15:55:59.585Z,11.15
2024-05-09T15:58:29.677Z,12.38
2024-05-09T16:01:00.278Z,11.18
2024-05-09T16:03:33.082Z,11.25
2024-05-09T16:06:05.572Z,10.30
2024-05-09T16:08:34.464Z,13.93
2024-05-09T16:11:23.729Z,10.02
2024-05-09T16:17:39.766Z,12.25
2024-05-09T16:23:06.139Z,14.95
2024-05-09T16:25:34.917Z,14.57
2024-05-09T16:28:05.920Z,13.68
2024-05-09T16:30:36.135Z,16.42
2024-05-09T16:33:04.917Z,15.25
2024-05-09T16:35:35.330Z,13.98
2024-05-09T16:38:03.844Z,14.02
2024-05-09T16:40:37.813Z,11.73
2024-05-09T16:43:12.179Z,13.30
2024-05-09T16:45:41.155Z,14.40
2024-05-09T16:48:11.032Z,17.10
2024-05-09T16:53:10.635Z,13.57
2024-05-09T16:55:38.439Z,15.65
2024-05-09T16:58:07.943Z,18.20
2024-05-09T17:00:40.939Z,19.25
2024-05-09T17:03:15.590Z,17.67
2024-05-09T17:05:43.608Z,17.10
2024-05-09T17:08:10.832Z,16.60
2024-05-09T17:10:37.720Z,17.23
2024-05-09T17:13:06.698Z,16.45
2024-05-09T17:15:34.998Z,18.30
2024-05-09T17:18:02.338Z,19.42
2024-05-09T17:20:34.738Z,16.50
2024-05-09T17:23:05.092Z,17.90
2024-05-09T17:25:34.361Z,18.50
2024-05-09T17:28:08.488Z,16.50
2024-05-09T17:30:38.475Z,17.05
2024-05-09T17:33:12.754Z,19.30
2024-05-09T17:35:40.095Z,17.00
2024-05-09T17:38:07.392Z,20.58
2024-05-09T17:40:36.750Z,17.02
2024-05-09T17:43:09.631Z,19.27
2024-05-09T17:45:42.734Z,16.15
2024-05-09T17:48:12.246Z,15.50
2024-05-09T17:53:06.650Z,16.67
2024-05-09T17:55:33.998Z,16.67
2024-05-09T17:58:03.388Z,16.00
2024-05-09T18:00:39.002Z,15.63
2024-05-09T18:03:10.357Z,15.70
2024-05-09T18:05:37.947Z,17.75
2024-05-09T18:08:16.640Z,17.13
2024-05-09T18:10:47.081Z,17.73
2024-05-09T18:13:15.072Z,17.50
2024-05-09T18:15:44.278Z,17.35
2024-05-09T18:18:12.110Z,18.55
2024-05-09T18:20:44.464Z,14.43
2024-05-09T18:23:16.581Z,15.38
2024-05-09T18:25:45.186Z,17.13
2024-05-09T18:28:14.620Z,18.92
2024-05-09T18:30:41.607Z,18.25
2024-05-09T18:33:24.935Z,16.75
2024-05-09T18:35:53.853Z,16.63
2024-05-09T18:38:25.443Z,18.42
2024-05-09T18:40:55.066Z,17.15
2024-05-09T18:43:28.530Z,16.10
2024-05-09T18:45:58.918Z,19.48
2024-05-09T18:48:28.070Z,14.65
2024-05-09T18:50:54.942Z,17.77
2024-05-09T18:53:22.839Z,17.23
2024-05-09T18:55:49.429Z,16.15
2024-05-09T18:58:17.616Z,14.98
2024-05-09T19:00:47.172Z,13.40
2024-05-09T19:03:16.632Z,16.23
2024-05-09T19:05:45.229Z,17.55
2024-05-09T19:08:14.575Z,16.17
2024-05-09T19:10:41.895Z,13.65
2024-05-09T19:13:12.202Z,15.85
2024-05-09T19:15:44.131Z,18.60
2024-05-09T19:18:18.712Z,17.15
2024-05-09T19:20:45.883Z,19.30
2024-05-09T19:23:12.941Z,19.45
2024-05-09T19:25:40.177Z,17.38
2024-05-09T19:28:07.182Z,19.23
2024-05-09T19:30:39.476Z,16.63
2024-05-09T19:33:11.566Z,16.20
2024-05-09T19:35:39.862Z,17.98
2024-05-09T19:38:09.643Z,17.10
2024-05-09T19:40:37.546Z,18.48
2024-05-09T19:43:06.483Z,19.20
2024-05-09T19:45:36.269Z,18.20
2024-05-09T19:48:04.851Z,21.05
2024-05-09T19:50:45.139Z,19.50
2024-05-09T19:53:15.798Z,17.83
2024-05-09T19:55:43.925Z,18.20
2024-05-09T19:58:19.696Z,19.02
2024-05-09T20:00:46.748Z,20.25
2024-05-09T20:03:16.563Z,18.92
2024-05-09T20:05:48.605Z,19.10
2024-05-09T20:08:16.013Z,18.13
2024-05-09T20:10:43.272Z,20.40
2024-05-09T20:13:10.107Z,19.23
2024-05-09T20:15:38.762Z,21.10
2024-05-09T20:18:06.453Z,21.77
2024-05-09T20:20:40.224Z,18.38
2024-05-09T20:23:11.447Z,19.08
2024-05-09T20:25:39.555Z,21.20
2024-05-09T20:28:07.190Z,23.58
2024-05-09T20:30:35.487Z,21.73
2024-05-09T20:33:04.586Z,21.67
2024-05-09T20:35:33.030Z,22.85
2024-05-09T20:38:04.126Z,24.00
2024-05-09T20:40:37.680Z,21.15
2024-05-09T20:43:10.996Z,23.73
2024-05-09T20:45:39.988Z,21.90
2024-05-09T20:50:40.565Z,21.77
2024-05-09T20:53:15.328Z,22.40
2024-05-09T20:55:43.383Z,24.20
2024-05-09T20:58:10.584Z,23.77
2024-05-09T21:00:41.074Z,21.58
2024-05-09T21:03:14.610Z,22.17
2024-05-09T21:05:42.755Z,22.20
2024-05-09T21:08:09.461Z,24.60
2024-05-09T21:10:36.840Z,22.17
2024-05-09T21:13:06.674Z,21.70
2024-05-09T21:18:04.426Z,22.85
2024-05-09T21:20:35.411Z,22.27
2024-05-09T21:23:07.742Z,20.60
2024-05-09T21:25:37.385Z,21.40
2024-05-09T21:28:04.602Z,22.92
2024-05-09T21:30:41.764Z,21.27
2024-05-09T21:33:14.016Z,22.98
2024-05-09T21:35:43.124Z,21.88
2024-05-09T21:38:15.465Z,23.40
2024-05-09T21:40:44.103Z,23.95
2024-05-09T21:43:11.276Z,22.08
2024-05-09T21:45:38.063Z,22.48
2024-05-09T21:48:06.212Z,21.85
2024-05-09T21:50:39.771Z,27.70
2024-05-09T21:53:08.606Z,23.65
2024-05-09T21:55:35.336Z,24.38
2024-05-09T21:58:02.904Z,23.83
2024-05-09T22:00:36.613Z,23.45
2024-05-09T22:03:06.881Z,23.70
2024-05-09T22:08:02.249Z,23.60
2024-05-09T22:10:33.993Z,22.60
2024-05-09T22:13:03.437Z,24.17
2024-05-09T22:15:30.433Z,23.70
2024-05-09T22:17:57.682Z,22.88
2024-05-09T22:20:33.736Z,25.45
2024-05-09T22:23:06.520Z,25.60
2024-05-09T22:25:33.651Z,25.65
2024-05-09T22:28:01.875Z,21.63
2024-05-09T22:30:35.798Z,24.90
2024-05-09T22:33:11.349Z,21.65
2024-05-09T22:35:40.211Z,23.05
2024-05-09T22:38:07.071Z,27.15
2024-05-09T22:40:43.297Z,24.63
2024-05-09T22:43:24.929Z,24.60
2024-05-09T22:45:54.884Z,25.65
2024-05-09T22:48:22.301Z,23.45
2024-05-09T22:50:49.074Z,22.85
2024-05-09T22:53:17.526Z,25.92
2024-05-09T22:55:44.166Z,26.92
2024-05-09T22:58:15.055Z,22.40
2024-05-09T23:00:41.835Z,25.80
2024-05-09T23:03:10.067Z,22.23
2024-05-09T23:05:36.847Z,25.13
2024-05-09T23:08:04.030Z,23.45
2024-05-09T23:10:36.288Z,24.23
2024-05-09T23:13:06.961Z,22.08
2024-05-09T23:15:34.682Z,21.88
2024-05-09T23:18:04.918Z,21.10
2024-05-09T23:20:38.502Z,23.95
2024-05-09T23:23:11.688Z,21.83
2024-05-09T23:25:41.639Z,23.75
2024-05-09T23:28:08.962Z,23.20
2024-05-09T23:30:39.086Z,21.38
2024-05-09T23:33:09.218Z,20.52
2024-05-09T23:35:36.385Z,21.67
2024-05-09T23:38:03.982Z,19.70
2024-05-09T23:40:38.322Z,22.10
2024-05-09T23:43:11.597Z,20.02
2024-05-09T23:45:40.354Z,19.10
2024-05-09T23:48:08.071Z,17.25
2024-05-09T23:50:37.948Z,18.13
2024-05-09T23:53:10.362Z,21.20
2024-05-09T23:55:38.130Z,18.15
2024-05-09T23:58:05.732Z,19.52
